Time;durP1;ratioP1;P1;durP2;ratioP2;P2;SDS_P1;SDS_P2;PMS_P1;PMS_P2;Temp;Humidity;BMP_temperature;BMP_pressure;BME280_temperature;BME280_humidity;BME280_pressure;Samples;Min_cycle;Max_cycle;Signal;HPM_P1;HPM_P2
2022/10/12 00:01:09;;;;;;;9.70;6.30;;;7.50;99.90;;;;;;6210393;23;20022;-74
2022/10/12 00:03:35;;;;;;;9.77;5.50;;;7.50;99.90;;;;;;6210560;23;20009;-73
2022/10/12 00:06:04;;;;;;;9.50;4.50;;;7.30;99.90;;;;;;6210618;23;19997;-73
2022/10/12 00:08:31;;;;;;;8.10;4.80;;;7.40;99.90;;;;;;6211114;23;20115;-73
2022/10/12 00:10:56;;;;;;;10.97;5.00;;;7.60;99.90;;;;;;6210291;23;20004;-73
2022/10/12 00:13:22;;;;;;;15.83;4.93;;;7.40;99.90;;;;;;6210071;23;20004;-74
2022/10/12 00:15:48;;;;;;;8.73;4.87;;;7.40;99.90;;;;;;6210840;23;20011;-75
2022/10/12 00:18:14;;;;;;;10.27;5.10;;;7.30;99.90;;;;;;6210303;23;20049;-73
2022/10/12 00:20:39;;;;;;;9.50;5.10;;;7.50;99.90;;;;;;6211133;23;20005;-73
2022/10/12 00:23:05;;;;;;;11.53;4.83;;;7.40;99.90;;;;;;6212436;23;20008;-73
2022/10/12 00:25:34;;;;;;;9.07;4.57;;;7.30;99.90;;;;;;6185856;23;20004;-73
2022/10/12 00:27:59;;;;;;;10.60;5.00;;;7.10;99.90;;;;;;6211530;23;19992;-73
2022/10/12 00:30:25;;;;;;;9.57;4.93;;;7.20;99.90;;;;;;6212306;23;20058;-73
2022/10/12 00:32:51;;;;;;;18.10;4.77;;;7.30;99.90;;;;;;6211999;23;20446;-73
2022/10/12 00:35:16;;;;;;;8.20;4.43;;;7.20;99.90;;;;;;6212450;23;20004;-73
2022/10/12 00:37:42;;;;;;;6.50;4.80;;;7.30;99.90;;;;;;6212356;23;20001;-73
2022/10/12 00:40:08;;;;;;;10.07;4.67;;;7.10;99.90;;;;;;6212338;23;19997;-73
2022/10/12 00:42:33;;;;;;;9.23;5.23;;;7.20;99.90;;;;;;6211889;23;20112;-73
2022/10/12 00:44:59;;;;;;;13.07;5.97;;;7.10;99.90;;;;;;6185271;23;20453;-74
2022/10/12 00:47:27;;;;;;;12.67;5.83;;;7.00;99.90;;;;;;6212283;23;20433;-74
2022/10/12 00:50:19;;;;;;;14.67;6.03;;;7.10;99.90;;;;;;6212091;23;20326;-73
2022/10/12 00:52:59;;;;;;;11.13;6.30;;;7.10;99.90;;;;;;6212040;23;20004;-73
2022/10/12 00:55:27;;;;;;;14.40;5.77;;;7.10;99.90;;;;;;6211662;23;20005;-73
2022/10/12 00:57:54;;;;;;;13.90;6.13;;;7.10;99.90;;;;;;6211851;23;20000;-73
2022/10/12 01:00:21;;;;;;;9.87;5.43;;;7.10;99.90;;;;;;6212077;23;20079;-73
2022/10/12 01:02:50;;;;;;;13.27;6.43;;;7.10;99.90;;;;;;6211936;23;19997;-73
2022/10/12 01:05:17;;;;;;;13.00;6.53;;;8.80;99.90;;;;;;6212451;23;20059;-73
2022/10/12 01:07:42;;;;;;;11.67;6.10;;;7.20;99.90;;;;;;6211992;23;19997;-73
2022/10/12 01:10:08;;;;;;;12.13;5.97;;;7.30;99.90;;;;;;6211790;23;20000;-73
2022/10/12 01:12:35;;;;;;;12.13;7.17;;;7.00;99.90;;;;;;6212384;23;20016;-74
2022/10/12 01:15:02;;;;;;;8.77;6.40;;;7.00;99.90;;;;;;6211905;23;20016;-73
2022/10/12 01:17:33;;;;;;;9.30;6.63;;;7.00;99.90;;;;;;6211961;23;20005;-73
2022/10/12 01:19:59;;;;;;;13.73;6.87;;;7.00;99.90;;;;;;6212043;23;20005;-74
2022/10/12 01:22:25;;;;;;;13.23;6.80;;;7.00;99.90;;;;;;6211989;23;20015;-75
2022/10/12 01:25:21;;;;;;;11.83;6.97;;;6.90;99.90;;;;;;6211471;23;20000;-75
2022/10/12 01:28:01;;;;;;;14.70;6.70;;;6.90;99.90;;;;;;6212017;23;20004;-74
2022/10/12 01:30:35;;;;;;;9.17;6.10;;;7.10;99.90;;;;;;6211979;23;20055;-75
2022/10/12 01:33:31;;;;;;;12.63;6.38;;;6.90;99.90;;;;;;6211337;23;20064;-74
2022/10/12 01:36:14;;;;;;;13.33;5.97;;;6.90;99.90;;;;;;6191551;23;20084;-75
2022/10/12 01:38:46;;;;;;;10.90;6.20;;;6.90;99.90;;;;;;6211365;23;20457;-75
2022/10/12 01:41:37;;;;;;;12.77;5.00;;;6.90;99.90;;;;;;6211640;23;20015;-74
2022/10/12 01:44:03;;;;;;;9.10;5.73;;;7.00;99.90;;;;;;6211586;23;20088;-74
2022/10/12 01:46:29;;;;;;;11.03;5.67;;;6.90;99.90;;;;;;6211689;23;20064;-75
2022/10/12 01:48:59;;;;;;;13.57;6.00;;;6.90;99.90;;;;;;6211427;23;20386;-75
2022/10/12 01:52:16;;;;;;;12.83;6.47;;;6.90;99.90;;;;;;6211704;23;20138;-75
2022/10/12 01:55:06;;;;;;;11.03;5.93;;;6.90;99.90;;;;;;6142044;23;20004;-75
2022/10/12 01:57:34;;;;;;;7.97;5.90;;;6.90;99.90;;;;;;6211573;23;20004;-75
2022/10/12 02:00:10;;;;;;;14.90;6.43;;;6.80;99.90;;;;;;6211456;23;20031;-75
2022/10/12 02:03:00;;;;;;;11.20;6.20;;;6.90;99.90;;;;;;6211650;23;20003;-75
2022/10/12 02:05:27;;;;;;;12.60;6.60;;;6.90;99.90;;;;;;6211496;23;20437;-74
2022/10/12 02:08:12;;;;;;;20.90;6.63;;;6.90;99.90;;;;;;6210701;23;20054;-74
2022/10/12 02:10:43;;;;;;;11.68;6.40;;;6.80;99.90;;;;;;6211515;23;20042;-75
2022/10/12 02:13:11;;;;;;;10.47;7.43;;;6.80;99.90;;;;;;6211525;23;20001;-73
2022/10/12 02:15:40;;;;;;;16.87;7.67;;;6.90;99.90;;;;;;6211125;23;19997;-72
2022/10/12 02:18:09;;;;;;;11.57;6.80;;;6.80;99.90;;;;;;6211469;23;20448;-72
2022/10/12 02:20:37;;;;;;;15.20;7.27;;;6.80;99.90;;;;;;6211240;23;20241;-72
2022/10/12 02:23:02;;;;;;;19.40;7.63;;;6.70;99.90;;;;;;6210722;23;20005;-72
2022/10/12 02:25:31;;;;;;;13.97;5.93;;;6.80;99.90;;;;;;6211537;23;20824;-73
2022/10/12 02:28:03;;;;;;;17.70;7.20;;;7.00;99.90;;;;;;6210962;23;20004;-73
2022/10/12 02:30:37;;;;;;;12.63;7.23;;;6.80;99.90;;;;;;6211665;23;20005;-73
2022/10/12 02:33:12;;;;;;;17.70;7.13;;;6.80;99.90;;;;;;6211591;23;20031;-73
2022/10/12 02:35:49;;;;;;;15.63;8.23;;;6.90;99.90;;;;;;6211588;23;20065;-73
2022/10/12 02:38:20;;;;;;;11.87;6.50;;;6.90;99.90;;;;;;6210653;23;20080;-73
2022/10/12 02:41:00;;;;;;;13.33;6.20;;;6.90;99.90;;;;;;6211250;23;20084;-73
2022/10/12 02:43:43;;;;;;;14.40;6.70;;;7.00;99.90;;;;;;6210926;23;20015;-74
2022/10/12 02:46:10;;;;;;;14.77;7.77;;;6.90;99.90;;;;;;6210989;23;20088;-73
2022/10/12 02:48:38;;;;;;;11.00;6.07;;;6.90;99.90;;;;;;6210218;23;20076;-73
2022/10/12 02:51:05;;;;;;;8.83;6.07;;;6.80;99.90;;;;;;6208392;23;20015;-73
2022/10/12 02:53:31;;;;;;;17.77;6.30;;;6.90;99.90;;;;;;6208473;23;20135;-73
2022/10/12 02:56:07;;;;;;;13.37;6.73;;;7.90;99.90;;;;;;6208475;23;20068;-73
2022/10/12 02:58:32;;;;;;;13.60;7.73;;;6.80;99.90;;;;;;6208742;23;20550;-73
2022/10/12 03:00:58;;;;;;;16.07;6.67;;;6.70;99.90;;;;;;6208424;23;20036;-73
2022/10/12 03:03:24;;;;;;;14.47;6.30;;;6.90;99.90;;;;;;6208892;23;20542;-73
2022/10/12 03:05:49;;;;;;;11.27;5.57;;;6.80;99.90;;;;;;6209415;23;20005;-73
2022/10/12 03:08:15;;;;;;;10.70;5.80;;;6.80;99.90;;;;;;6210752;23;20012;-73
2022/10/12 03:10:40;;;;;;;12.40;5.97;;;6.80;99.90;;;;;;6211112;23;20012;-74
2022/10/12 03:13:06;;;;;;;15.10;6.57;;;6.70;99.90;;;;;;6210929;23;20024;-73
2022/10/12 03:15:31;;;;;;;12.27;6.00;;;6.70;99.90;;;;;;6209755;23;20043;-73
2022/10/12 03:17:57;;;;;;;10.03;6.23;;;6.70;99.90;;;;;;6210564;23;20001;-74
2022/10/12 03:20:23;;;;;;;10.90;5.80;;;6.70;99.90;;;;;;6210090;23;20004;-73
2022/10/12 03:22:48;;;;;;;11.43;6.93;;;6.70;99.90;;;;;;6210880;23;20062;-74
2022/10/12 03:25:15;;;;;;;12.33;6.47;;;6.70;99.90;;;;;;6211162;23;20148;-74
2022/10/12 03:27:40;;;;;;;16.07;7.60;;;6.60;99.90;;;;;;6211053;23;20276;-73
2022/10/12 03:30:06;;;;;;;14.73;6.80;;;6.60;99.90;;;;;;6210825;23;20024;-74
2022/10/12 03:32:32;;;;;;;18.47;7.43;;;6.50;99.90;;;;;;6210996;23;20020;-74
2022/10/12 03:34:57;;;;;;;14.30;7.23;;;6.50;99.90;;;;;;6210104;23;20377;-74
2022/10/12 03:37:23;;;;;;;13.73;7.20;;;6.40;99.90;;;;;;6210753;23;20055;-74
2022/10/12 03:39:48;;;;;;;14.40;7.43;;;6.40;99.90;;;;;;6210735;23;20051;-74
2022/10/12 03:42:14;;;;;;;12.40;7.13;;;6.30;99.90;;;;;;6210857;23;20396;-74
2022/10/12 03:44:40;;;;;;;13.67;8.03;;;6.70;99.90;;;;;;6210210;23;20690;-74
2022/10/12 03:47:06;;;;;;;11.17;7.10;;;;;;;;;;6210830;23;20311;-73
2022/10/12 03:49:31;;;;;;;11.40;6.77;;;6.20;99.90;;;;;;6210012;23;20064;-74
2022/10/12 03:51:57;;;;;;;13.30;7.03;;;6.20;99.90;;;;;;6210499;23;20009;-74
2022/10/12 03:54:22;;;;;;;12.73;7.57;;;6.20;99.90;;;;;;6210704;23;20008;-74
2022/10/12 03:56:48;;;;;;;14.67;7.00;;;6.10;99.90;;;;;;6212230;23;20004;-73
2022/10/12 03:59:13;;;;;;;13.37;7.27;;;6.00;99.90;;;;;;6212587;23;20014;-74
2022/10/12 04:01:39;;;;;;;10.27;6.77;;;6.00;99.90;;;;;;6185757;23;20013;-73
2022/10/12 04:04:04;;;;;;;14.17;6.73;;;6.10;99.90;;;;;;6211981;23;20050;-74
2022/10/12 04:06:30;;;;;;;14.90;7.63;;;6.10;99.90;;;;;;6212341;23;19997;-74
2022/10/12 04:08:55;;;;;;;17.27;8.27;;;6.00;99.90;;;;;;6212468;23;20011;-75
2022/10/12 04:11:21;;;;;;;12.13;6.97;;;6.10;99.90;;;;;;6212534;23;20004;-74
2022/10/12 04:13:47;;;;;;;17.63;7.20;;;5.90;99.90;;;;;;6212139;23;20000;-74
2022/10/12 04:16:13;;;;;;;12.70;8.43;;;6.10;99.90;;;;;;6211825;23;20425;-75
2022/10/12 04:18:38;;;;;;;13.50;7.80;;;5.90;99.90;;;;;;6211349;23;20001;-74
2022/10/12 04:21:12;;;;;;;19.70;8.33;;;6.00;99.90;;;;;;6211612;23;20009;-74
2022/10/12 04:23:38;;;;;;;12.63;8.05;;;6.00;99.90;;;;;;6212265;23;20008;-74
2022/10/12 04:26:04;;;;;;;12.83;7.97;;;6.20;99.90;;;;;;6212435;23;20107;-74
2022/10/12 04:28:29;;;;;;;14.33;9.07;;;6.00;99.90;;;;;;6212087;23;20414;-74
2022/10/12 04:30:55;;;;;;;14.80;8.80;;;6.00;99.90;;;;;;6211935;23;20076;-74
2022/10/12 04:33:20;;;;;;;14.63;8.50;;;6.10;99.90;;;;;;6211452;23;20051;-74
2022/10/12 04:35:46;;;;;;;14.00;8.20;;;5.80;99.90;;;;;;6185537;23;20007;-74
2022/10/12 04:38:12;;;;;;;12.27;8.47;;;5.90;99.90;;;;;;6212016;23;19993;-74
2022/10/12 04:40:38;;;;;;;14.47;8.17;;;;;;;;;;6212230;23;20038;-74
2022/10/12 04:43:04;;;;;;;14.97;7.93;;;5.80;99.90;;;;;;6212107;23;20074;-74
2022/10/12 04:45:29;;;;;;;13.23;7.60;;;5.70;99.90;;;;;;6211810;23;20311;-74
2022/10/12 04:47:55;;;;;;;14.07;7.50;;;5.80;99.90;;;;;;6211242;23;20042;-74
2022/10/12 04:50:21;;;;;;;19.87;8.73;;;5.70;99.90;;;;;;6212050;23;20043;-74
2022/10/12 04:52:46;;;;;;;14.53;8.67;;;5.70;99.90;;;;;;6211680;23;20020;-75
2022/10/12 04:55:12;;;;;;;18.57;9.43;;;5.60;99.90;;;;;;6212068;23;20051;-75
2022/10/12 04:57:38;;;;;;;22.27;9.47;;;5.70;99.90;;;;;;6211858;23;20084;-74
2022/10/12 05:00:05;;;;;;;17.03;8.77;;;5.70;99.90;;;;;;6211939;23;20714;-74
2022/10/12 05:02:30;;;;;;;18.93;9.97;;;5.50;99.90;;;;;;6211117;23;20007;-75
2022/10/12 05:04:57;;;;;;;17.53;9.10;;;5.60;99.90;;;;;;6211690;23;20080;-76
2022/10/12 05:07:22;;;;;;;13.07;8.20;;;5.80;99.90;;;;;;6184722;23;20083;-74
2022/10/12 05:09:48;;;;;;;15.23;8.90;;;5.50;99.90;;;;;;6212271;23;20008;-74
2022/10/12 05:12:14;;;;;;;12.23;8.57;;;5.60;99.90;;;;;;6211718;23;20001;-75
2022/10/12 05:14:39;;;;;;;20.10;8.80;;;5.60;99.90;;;;;;6211817;23;20019;-74
2022/10/12 05:17:05;;;;;;;21.83;8.80;;;5.50;99.90;;;;;;6211060;23;20016;-74
2022/10/12 05:19:30;;;;;;;17.73;8.97;;;5.50;99.90;;;;;;6211337;23;20029;-75
2022/10/12 05:21:56;;;;;;;14.93;9.23;;;;;;;;;;6211424;23;20009;-74
2022/10/12 05:24:22;;;;;;;15.93;9.47;;;5.40;99.90;;;;;;6211782;23;20067;-75
2022/10/12 05:26:47;;;;;;;14.57;9.13;;;5.50;99.90;;;;;;6211864;23;20410;-75
2022/10/12 05:29:13;;;;;;;21.00;9.03;;;5.50;99.90;;;;;;6211486;23;19997;-76
2022/10/12 05:31:38;;;;;;;20.30;9.47;;;5.30;99.90;;;;;;6210885;23;20422;-75
2022/10/12 05:34:04;;;;;;;19.77;9.00;;;5.40;99.90;;;;;;6211635;23;20024;-76
2022/10/12 05:36:30;;;;;;;13.97;8.47;;;5.40;99.90;;;;;;6211767;23;20306;-76
2022/10/12 05:38:55;;;;;;;14.87;9.70;;;;;;;;;;6211567;23;20001;-76
2022/10/12 05:41:21;;;;;;;17.87;8.73;;;5.50;99.90;;;;;;6211612;23;20058;-75
2022/10/12 05:43:47;;;;;;;17.17;9.43;;;5.40;99.90;;;;;;6211527;23;20099;-75
2022/10/12 05:46:12;;;;;;;16.33;9.47;;;5.40;99.90;;;;;;6211401;23;20000;-76
2022/10/12 05:48:38;;;;;;;12.80;9.97;;;5.30;99.90;;;;;;6211243;23;20005;-75
2022/10/12 05:51:03;;;;;;;22.37;9.73;;;5.40;99.90;;;;;;6211332;23;20373;-75
2022/10/12 05:53:29;;;;;;;16.57;10.27;;;5.50;99.90;;;;;;6211310;23;20008;-74
2022/10/12 05:55:59;;;;;;;25.23;12.60;;;5.30;99.90;;;;;;6211150;23;20445;-74
2022/10/12 05:58:27;;;;;;;21.67;11.37;;;5.40;99.90;;;;;;6211561;23;20009;-74
2022/10/12 06:00:54;;;;;;;13.23;9.37;;;5.40;99.90;;;;;;6210600;23;20334;-75
2022/10/12 06:03:20;;;;;;;17.13;10.17;;;5.50;99.90;;;;;;6184682;23;20429;-75
2022/10/12 06:05:46;;;;;;;18.93;10.10;;;5.40;99.90;;;;;;6211138;23;19997;-74
2022/10/12 06:08:12;;;;;;;16.60;10.30;;;5.50;99.90;;;;;;6211389;23;20005;-75
2022/10/12 06:10:44;;;;;;;16.43;10.90;;;5.40;99.90;;;;;;6211165;23;20035;-75
2022/10/12 06:13:10;;;;;;;18.57;11.40;;;5.50;99.90;;;;;;6211563;23;20009;-75
2022/10/12 06:15:35;;;;;;;17.87;10.37;;;5.40;99.90;;;;;;6211252;23;20004;-75
2022/10/12 06:18:01;;;;;;;15.80;11.73;;;5.70;99.90;;;;;;6210585;23;20001;-75
2022/10/12 06:20:27;;;;;;;18.53;11.13;;;5.40;99.90;;;;;;6211162;23;20048;-75
2022/10/12 06:22:52;;;;;;;14.67;10.23;;;5.70;99.90;;;;;;6210979;23;20004;-75
2022/10/12 06:25:18;;;;;;;20.23;10.57;;;5.60;99.90;;;;;;6211360;23;20004;-75
2022/10/12 06:27:44;;;;;;;20.90;11.37;;;5.70;99.90;;;;;;6211145;23;20008;-75
2022/10/12 06:30:10;;;;;;;20.17;12.00;;;5.80;99.90;;;;;;6210580;23;20004;-75
2022/10/12 06:32:36;;;;;;;16.97;10.83;;;5.90;99.90;;;;;;6211096;23;20176;-76
2022/10/12 06:35:02;;;;;;;16.73;10.47;;;5.90;99.90;;;;;;6184289;23;20386;-75
2022/10/12 06:37:28;;;;;;;15.50;10.13;;;6.00;99.90;;;;;;6211016;23;19996;-75
2022/10/12 06:39:54;;;;;;;19.77;10.73;;;6.10;99.90;;;;;;6210646;23;20011;-76
2022/10/12 06:42:20;;;;;;;20.23;11.30;;;6.20;99.90;;;;;;6210955;23;20000;-76
2022/10/12 06:44:45;;;;;;;24.80;12.00;;;6.20;99.90;;;;;;6183522;23;20017;-75
2022/10/12 06:47:11;;;;;;;15.47;12.17;;;6.30;99.90;;;;;;6210893;23;20020;-76
2022/10/12 06:49:37;;;;;;;28.90;14.20;;;6.20;99.90;;;;;;6210950;23;20002;-76
2022/10/12 06:52:03;;;;;;;25.47;15.20;;;;;;;;;;6211074;23;20031;-75
2022/10/12 06:54:28;;;;;;;29.87;15.80;;;6.30;99.90;;;;;;6211065;23;20076;-75
2022/10/12 06:56:54;;;;;;;22.93;15.13;;;6.40;99.90;;;;;;6210498;23;20398;-75
2022/10/12 06:59:21;;;;;;;28.50;16.77;;;6.40;99.90;;;;;;6205024;23;20008;-75
2022/10/12 07:01:47;;;;;;;30.57;17.50;;;6.50;99.90;;;;;;6209619;23;20155;-75
2022/10/12 07:04:13;;;;;;;33.53;17.77;;;6.60;99.90;;;;;;6208479;23;20446;-75
2022/10/12 07:06:38;;;;;;;31.57;18.03;;;6.70;99.90;;;;;;6209723;23;20000;-74
2022/10/12 07:09:04;;;;;;;28.87;16.33;;;6.70;99.90;;;;;;6207356;23;20587;-75
2022/10/12 07:11:29;;;;;;;32.77;16.37;;;6.80;99.90;;;;;;6210903;23;20474;-75
2022/10/12 07:13:56;;;;;;;23.40;17.47;;;6.70;99.90;;;;;;6207472;23;20043;-75
2022/10/12 07:16:22;;;;;;;28.83;15.67;;;;;;;;;;6208798;23;20000;-75
2022/10/12 07:18:48;;;;;;;32.03;17.30;;;7.00;99.90;;;;;;6208211;23;20138;-75
2022/10/12 07:21:14;;;;;;;24.90;17.47;;;;;;;;;;6207297;23;20140;-75
2022/10/12 07:23:40;;;;;;;25.13;17.47;;;7.10;99.90;;;;;;6210167;23;20000;-75
2022/10/12 07:26:06;;;;;;;26.37;17.37;;;7.10;99.90;;;;;;6209772;23;20001;-76
2022/10/12 07:28:34;;;;;;;26.27;17.37;;;7.20;99.90;;;;;;6182215;23;20011;-75
2022/10/12 07:31:01;;;;;;;22.63;15.90;;;7.30;99.90;;;;;;6210239;23;20020;-75
2022/10/12 07:33:30;;;;;;;31.27;19.27;;;7.20;99.90;;;;;;6213291;23;20008;-76
2022/10/12 07:35:56;;;;;;;23.67;17.90;;;7.10;99.90;;;;;;6212497;23;20026;-76
2022/10/12 07:38:21;;;;;;;22.87;17.10;;;7.30;99.90;;;;;;6213078;23;20096;-75
2022/10/12 07:40:47;;;;;;;20.60;15.83;;;7.30;99.90;;;;;;6212095;23;20032;-75
2022/10/12 07:43:12;;;;;;;27.87;17.10;;;7.40;99.90;;;;;;6211363;23;20011;-75
2022/10/12 07:45:38;;;;;;;21.73;17.53;;;7.40;99.90;;;;;;6212851;23;20020;-75
2022/10/12 07:48:04;;;;;;;24.77;17.33;;;7.40;99.90;;;;;;6213399;23;20171;-75
2022/10/12 07:50:29;;;;;;;31.03;16.90;;;7.40;99.90;;;;;;6211794;23;20005;-75
2022/10/12 07:52:56;;;;;;;31.07;18.37;;;7.50;99.90;;;;;;6211533;23;19996;-75
2022/10/12 07:55:21;;;;;;;35.00;17.63;;;7.40;99.90;;;;;;6212469;23;20422;-75
2022/10/12 07:57:47;;;;;;;26.17;18.87;;;7.40;99.90;;;;;;6213042;23;20012;-75
2022/10/12 08:00:13;;;;;;;27.27;18.53;;;7.50;99.90;;;;;;6212113;23;20004;-75
2022/10/12 08:02:38;;;;;;;27.70;17.97;;;7.50;99.90;;;;;;6212935;23;20007;-75
2022/10/12 08:05:04;;;;;;;30.03;18.47;;;7.40;99.90;;;;;;6211681;23;20005;-75
2022/10/12 08:07:30;;;;;;;29.27;18.10;;;7.60;99.90;;;;;;6213051;23;20047;-76
2022/10/12 08:09:55;;;;;;;31.37;20.47;;;7.60;99.90;;;;;;6185035;23;20012;-76
2022/10/12 08:12:21;;;;;;;30.23;18.63;;;7.70;99.90;;;;;;6213381;23;20004;-75
2022/10/12 08:14:46;;;;;;;27.10;19.47;;;7.80;99.90;;;;;;6211984;23;20004;-75
2022/10/12 08:17:12;;;;;;;32.03;19.30;;;7.90;99.90;;;;;;6212491;23;20004;-76
2022/10/12 08:19:37;;;;;;;27.27;19.97;;;8.00;99.90;;;;;;6211878;23;20004;-75
2022/10/12 08:22:03;;;;;;;30.43;21.63;;;8.10;99.90;;;;;;6213229;23;20035;-75
2022/10/12 08:24:28;;;;;;;30.47;23.50;;;8.20;99.90;;;;;;6212493;23;20016;-75
2022/10/12 08:26:54;;;;;;;30.43;22.43;;;8.30;99.90;;;;;;6211395;23;20055;-75
2022/10/12 08:29:20;;;;;;;34.63;23.93;;;8.40;99.90;;;;;;6211772;23;20000;-75
2022/10/12 08:31:48;;;;;;;29.57;21.00;;;;;;;;;;6213199;23;20409;-74
2022/10/12 08:34:14;;;;;;;26.57;21.07;;;8.60;99.90;;;;;;6213223;23;20495;-75
2022/10/12 08:36:40;;;;;;;33.10;20.87;;;8.70;99.90;;;;;;6211923;23;20480;-75
2022/10/12 08:39:07;;;;;;;26.57;19.50;;;8.80;99.90;;;;;;6210625;23;20083;-74
2022/10/12 08:41:57;;;;;;;29.10;20.33;;;8.90;99.90;;;;;;6212804;23;20075;-74
2022/10/12 08:44:50;;;;;;;28.23;19.47;;;9.00;99.90;;;;;;6211452;23;20134;-75
2022/10/12 08:47:33;;;;;;;35.73;18.87;;;9.10;99.90;;;;;;6210993;23;20058;-75
2022/10/12 08:50:01;;;;;;;27.60;19.17;;;9.20;99.90;;;;;;6209236;23;20055;-75
2022/10/12 08:52:35;;;;;;;29.87;18.03;;;9.10;99.90;;;;;;6211520;23;20062;-75
2022/10/12 08:55:15;;;;;;;20.67;18.00;;;9.20;99.90;;;;;;6210505;23;20000;-75
2022/10/12 08:57:41;;;;;;;24.80;17.20;;;9.30;99.90;;;;;;6211308;23;20009;-75
2022/10/12 09:00:13;;;;;;;26.83;18.00;;;9.20;99.90;;;;;;6181891;23;20311;-75
2022/10/12 09:03:24;;;;;;;22.00;17.00;;;9.10;99.90;;;;;;6211491;23;20126;-75
2022/10/12 09:06:04;;;;;;;28.63;18.27;;;9.20;99.90;;;;;;6061418;23;20007;-75
2022/10/12 09:09:08;;;;;;;23.97;17.63;;;9.20;99.90;;;;;;6060422;23;20003;-75
2022/10/12 09:11:44;;;;;;;35.05;18.45;;;9.30;99.90;;;;;;6017400;23;20007;-76
2022/10/12 09:14:20;;;;;;;28.97;17.03;;;9.30;99.90;;;;;;6060710;23;20346;-75
2022/10/12 09:16:47;;;;;;;23.03;17.87;;;9.30;99.90;;;;;;6061106;23;20022;-75
2022/10/12 09:19:21;;;;;;;30.47;17.83;;;9.30;99.90;;;;;;6059703;23;20400;-76
2022/10/12 09:21:48;;;;;;;19.03;15.50;;;9.40;99.90;;;;;;6059474;23;20072;-75
2022/10/12 09:24:35;;;;;;;27.03;17.97;;;9.50;99.90;;;;;;6060444;23;20007;-75
2022/10/12 09:27:15;;;;;;;27.53;17.30;;;9.40;99.90;;;;;;6060727;23;20078;-75
2022/10/12 09:29:43;;;;;;;28.23;17.60;;;9.60;99.90;;;;;;6059661;23;19999;-75
2022/10/12 09:32:26;;;;;;;21.70;16.50;;;9.80;99.90;;;;;;6059592;23;20007;-76
2022/10/12 09:34:53;;;;;;;28.60;18.03;;;9.90;99.90;;;;;;6060373;23;20149;-76
2022/10/12 09:37:25;;;;;;;27.47;17.20;;;9.90;99.90;;;;;;6060099;23;20007;-76
2022/10/12 09:39:51;;;;;;;23.70;14.40;;;10.00;99.90;;;;;;6147045;23;20004;-75
2022/10/12 09:42:16;;;;;;;24.30;14.97;;;10.00;99.90;;;;;;6211038;23;20236;-75
2022/10/12 09:45:15;;;;;;;18.10;15.57;;;10.30;99.90;;;;;;6209878;23;20078;-76
2022/10/12 09:47:40;;;;;;;24.83;17.07;;;10.30;99.90;;;;;;6211161;23;20067;-76
2022/10/12 09:50:06;;;;;;;23.63;16.27;;;10.30;99.90;;;;;;6210453;23;20283;-75
2022/10/12 09:52:35;;;;;;;21.57;16.23;;;10.40;99.90;;;;;;6183984;23;20434;-76
2022/10/12 09:55:23;;;;;;;23.07;16.37;;;10.40;99.90;;;;;;6209594;23;20024;-76
2022/10/12 09:57:58;;;;;;;24.67;16.00;;;10.40;99.90;;;;;;6210481;23;20059;-76
2022/10/12 10:00:32;;;;;;;21.47;15.87;;;10.50;99.90;;;;;;6209784;23;20011;-75
2022/10/12 10:02:58;;;;;;;22.80;16.50;;;10.60;99.90;;;;;;6210937;23;20004;-75
2022/10/12 10:05:37;;;;;;;26.40;16.03;;;10.70;99.90;;;;;;6209461;23;19993;-76
2022/10/12 10:08:18;;;;;;;24.87;16.33;;;10.70;99.90;;;;;;6210861;23;20005;-75
2022/10/12 10:11:14;;;;;;;25.13;17.60;;;10.80;99.90;;;;;;6209542;23;20070;-75
2022/10/12 10:13:46;;;;;;;19.67;14.77;;;10.90;99.90;;;;;;6158129;23;20076;-75
2022/10/12 10:16:12;;;;;;;25.15;14.30;;;10.90;99.90;;;;;;6209216;23;20075;-75
2022/10/12 10:18:39;;;;;;;22.23;15.27;;;11.70;99.90;;;;;;6209461;23;20008;-75
2022/10/12 10:21:11;;;;;;;21.08;15.57;;;11.10;99.90;;;;;;6209404;23;20326;-76
2022/10/12 10:23:55;;;;;;;29.42;16.75;;;11.20;99.90;;;;;;6210224;23;20004;-75
2022/10/12 10:26:23;;;;;;;27.13;15.55;;;11.30;99.90;;;;;;6210814;23;20075;-75
2022/10/12 10:28:54;;;;;;;22.23;16.83;;;11.30;99.90;;;;;;6210790;23;20290;-75
2022/10/12 10:31:24;;;;;;;24.02;17.67;;;11.40;99.90;;;;;;6210375;23;20004;-75
2022/10/12 10:34:15;;;;;;;29.13;17.98;;;11.40;99.90;;;;;;6210560;23;20028;-75
2022/10/12 10:36:53;;;;;;;25.25;18.08;;;11.20;99.90;;;;;;6209918;23;20026;-75
2022/10/12 10:39:33;;;;;;;24.75;18.10;;;11.50;99.90;;;;;;6210454;23;20023;-75
2022/10/12 10:42:16;;;;;;;23.35;18.58;;;11.50;99.90;;;;;;6210514;23;20012;-75
2022/10/12 10:44:49;;;;;;;24.88;19.17;;;11.60;99.90;;;;;;6210897;23;20016;-75
2022/10/12 10:47:14;;;;;;;24.90;16.65;;;11.70;99.90;;;;;;6210956;23;20058;-75
2022/10/12 10:49:48;;;;;;;26.75;18.63;;;11.50;99.90;;;;;;6209891;23;20100;-76
2022/10/12 10:52:30;;;;;;;;;;;11.80;99.90;;;;;;6211392;23;19997;-76
2022/10/12 10:55:22;;;;;;;28.30;16.95;;;11.90;99.90;;;;;;6210399;23;19993;-75
2022/10/12 10:57:59;;;;;;;23.08;17.23;;;11.90;99.90;;;;;;6209389;23;20001;-76
2022/10/12 11:00:24;;;;;;;24.42;17.55;;;11.90;99.90;;;;;;6210415;23;20422;-77
2022/10/12 11:02:52;;;;;;;25.95;17.83;;;12.30;99.90;;;;;;6210132;23;20088;-76
2022/10/12 11:05:25;;;;;;;23.92;17.15;;;12.30;99.90;;;;;;6209398;23;20001;-77
2022/10/12 11:08:09;;;;;;;23.20;17.25;;;12.20;99.90;;;;;;6209914;23;20061;-77
2022/10/12 11:10:40;;;;;;;23.13;17.65;;;12.50;99.90;;;;;;6210380;23;20008;-76
2022/10/12 11:13:15;;;;;;;19.45;16.40;;;12.50;99.90;;;;;;6210419;23;19997;-77
2022/10/12 11:15:53;;;;;;;22.60;17.52;;;12.70;99.90;;;;;;6210537;23;20055;-77
2022/10/12 11:18:41;;;;;;;21.92;15.88;;;12.60;99.90;;;;;;6210573;23;20011;-77
2022/10/12 11:21:34;;;;;;;27.33;15.65;;;12.70;99.90;;;;;;6210212;23;20004;-77
2022/10/12 11:24:17;;;;;;;27.35;14.77;;;12.70;99.90;;;;;;6191548;23;20004;-76
2022/10/12 11:26:52;;;;;;;23.73;15.53;;;12.80;99.90;;;;;;6183770;23;20088;-77
2022/10/12 11:29:18;;;;;;;19.70;14.85;;;12.70;99.90;;;;;;6210464;23;20252;-77
2022/10/12 11:32:02;;;;;;;20.85;15.57;;;12.70;99.90;;;;;;6210036;23;20299;-77
2022/10/12 11:34:34;;;;;;;20.05;16.13;;;12.80;99.90;;;;;;6209628;23;20000;-77
2022/10/12 11:37:01;;;;;;;25.73;15.32;;;12.70;99.90;;;;;;6210317;23;20004;-77
2022/10/12 11:39:31;;;;;;;27.55;15.55;;;12.60;99.90;;;;;;6210292;23;20001;-76
2022/10/12 11:42:01;;;;;;;23.13;12.57;;;12.70;99.90;;;;;;6209833;23;20017;-77
2022/10/12 11:44:44;;;;;;;18.63;13.35;;;12.60;99.90;;;;;;6210261;23;20051;-76
2022/10/12 11:47:33;;;;;;;21.52;15.52;;;12.70;99.90;;;;;;6210108;23;20081;-77
2022/10/12 11:50:01;;;;;;;24.17;15.25;;;12.60;99.90;;;;;;6190265;23;20009;-77
2022/10/12 11:52:36;;;;;;;26.00;14.93;;;12.70;99.90;;;;;;6209825;23;20004;-78
2022/10/12 11:55:24;;;;;;;23.83;17.27;;;12.70;99.90;;;;;;6210752;23;20001;-78
2022/10/12 11:57:55;;;;;;;23.20;15.00;;;12.70;99.90;;;;;;6183808;23;20091;-77
2022/10/12 12:00:37;;;;;;;24.08;12.40;;;12.70;99.90;;;;;;6210581;23;20130;-77
2022/10/12 12:03:29;;;;;;;20.13;13.02;;;12.70;99.90;;;;;;6209815;23;20076;-77
2022/10/12 12:05:55;;;;;;;23.27;15.02;;;12.80;99.90;;;;;;6210509;23;20019;-77
2022/10/12 12:08:41;;;;;;;23.83;14.82;;;12.70;99.90;;;;;;6210712;23;20076;-77
2022/10/12 12:11:24;;;;;;;28.30;14.55;;;12.70;99.90;;;;;;6184169;23;20059;-77
2022/10/12 12:13:50;;;;;;;19.85;13.57;;;12.90;99.90;;;;;;6209956;23;20294;-77
2022/10/12 12:16:15;;;;;;;20.45;13.88;;;12.80;99.90;;;;;;6210317;23;20001;-77
2022/10/12 12:19:06;;;;;;;22.13;13.45;;;13.00;99.90;;;;;;6211415;23;20007;-77
2022/10/12 12:22:10;;;;;;;27.90;14.85;;;13.10;99.90;;;;;;6211757;23;20063;-78
2022/10/12 12:24:37;;;;;;;25.27;14.13;;;14.30;99.90;;;;;;6211898;23;20059;-77
2022/10/12 12:27:02;;;;;;;18.75;12.80;;;13.30;99.90;;;;;;6212248;23;20011;-77
2022/10/12 12:29:28;;;;;;;20.02;12.07;;;13.40;99.90;;;;;;6212282;23;20387;-77
2022/10/12 12:31:58;;;;;;;17.88;11.57;;;14.80;99.90;;;;;;6211393;23;20005;-77
2022/10/12 12:34:25;;;;;;;18.27;12.55;;;13.70;99.90;;;;;;6211985;23;20043;-77
2022/10/12 12:36:51;;;;;;;21.67;12.90;;;13.70;99.90;;;;;;6212183;23;20318;-76
2022/10/12 12:39:34;;;;;;;23.77;11.73;;;13.70;99.90;;;;;;6212222;23;20000;-77
2022/10/12 12:42:03;;;;;;;18.45;10.85;;;14.00;99.90;;;;;;6211738;23;20338;-77
2022/10/12 12:44:41;;;;;;;21.40;11.25;;;14.00;99.90;;;;;;6211831;23;20492;-78
2022/10/12 12:47:10;;;;;;;18.15;10.02;;;14.10;99.90;;;;;;6211570;23;19997;-78
2022/10/12 12:49:44;;;;;;;17.63;11.10;;;14.20;99.90;;;;;;6212270;23;20016;-77
2022/10/12 12:52:31;;;;;;;13.02;9.60;;;14.30;99.90;;;;;;6211985;23;20005;-77
2022/10/12 12:55:35;;;;;;;21.90;10.75;;;15.00;99.90;;;;;;6211891;23;20087;-75
2022/10/12 12:58:23;;;;;;;16.50;7.37;;;14.60;99.90;;;;;;6211918;23;20009;-75
2022/10/12 13:01:23;;;;;;;13.80;7.00;;;14.70;99.90;;;;;;6211444;23;20766;-77